createdAt,value
2018-10-21T00:00:50.622Z,20.07
2018-10-21T00:03:24.976Z,20.53
2018-10-21T00:05:59.344Z,19.23
2018-10-21T00:08:33.637Z,22.60
2018-10-21T00:11:07.917Z,20.10
2018-10-21T00:13:42.272Z,21.47
2018-10-21T00:16:16.576Z,20.23
2018-10-21T00:18:50.959Z,20.30
2018-10-21T00:21:25.195Z,22.53
2018-10-21T00:23:59.761Z,21.50
2018-10-21T00:26:34.132Z,21.42
2018-10-21T00:29:08.440Z,21.93
2018-10-21T00:31:42.821Z,23.17
2018-10-21T00:34:17.031Z,21.60
2018-10-21T00:36:51.205Z,20.57
2018-10-21T00:39:25.495Z,22.27
2018-10-21T00:41:59.806Z,22.50
2018-10-21T00:44:34.118Z,22.27
2018-10-21T00:47:08.462Z,23.13
2018-10-21T00:49:43.661Z,21.93
2018-10-21T00:52:18.002Z,22.60
2018-10-21T00:54:52.540Z,21.50
2018-10-21T00:57:26.745Z,22.17
2018-10-21T01:00:01.064Z,23.07
2018-10-21T01:02:35.192Z,23.33
2018-10-21T01:05:11.001Z,24.13
2018-10-21T01:07:45.286Z,23.73
2018-10-21T01:10:19.997Z,22.97
2018-10-21T01:12:54.612Z,24.07
2018-10-21T01:15:29.870Z,23.53
2018-10-21T01:18:06.646Z,22.63
2018-10-21T01:20:41.117Z,25.10
2018-10-21T01:23:15.368Z,25.23
2018-10-21T01:25:49.659Z,24.57
2018-10-21T01:28:24.738Z,25.10
2018-10-21T01:30:59.845Z,25.67
2018-10-21T01:33:34.902Z,25.90
2018-10-21T01:36:09.225Z,26.57
2018-10-21T01:38:43.607Z,27.27
2018-10-21T01:41:17.872Z,28.93
2018-10-21T01:43:52.427Z,27.70
2018-10-21T01:46:27.225Z,29.00
2018-10-21T01:49:01.622Z,27.40
2018-10-21T01:51:36.116Z,28.87
2018-10-21T01:54:11.359Z,28.80
2018-10-21T01:56:46.852Z,26.97
2018-10-21T01:59:21.048Z,29.03
2018-10-21T02:01:55.756Z,28.87
2018-10-21T02:04:31.099Z,29.30
2018-10-21T02:07:05.503Z,28.40
2018-10-21T02:09:39.856Z,29.87
2018-10-21T02:12:15.583Z,27.83
2018-10-21T02:14:49.969Z,28.53
2018-10-21T02:17:24.333Z,29.20
2018-10-21T02:19:58.648Z,30.77
2018-10-21T02:22:34.025Z,31.60
2018-10-21T02:25:08.532Z,30.13
2018-10-21T02:27:43.744Z,30.73
2018-10-21T02:30:20.289Z,29.33
2018-10-21T02:32:55.033Z,31.37
2018-10-21T02:35:29.438Z,30.30
2018-10-21T02:38:03.813Z,33.37
2018-10-21T02:41:47.224Z,33.80
2018-10-21T02:44:22.200Z,31.03
2018-10-21T02:46:58.254Z,30.67
2018-10-21T02:49:32.448Z,32.17
2018-10-21T02:52:08.872Z,31.30
2018-10-21T02:54:43.719Z,33.30
2018-10-21T02:57:18.074Z,32.63
2018-10-21T02:59:53.372Z,34.43
2018-10-21T03:02:27.734Z,32.10
2018-10-21T03:05:02.151Z,34.60
2018-10-21T03:07:36.546Z,36.90
2018-10-21T03:10:10.788Z,33.77
2018-10-21T03:12:45.266Z,32.30
2018-10-21T03:15:19.534Z,32.23
2018-10-21T03:17:53.812Z,33.63
2018-10-21T03:20:28.156Z,35.20
2018-10-21T03:23:02.540Z,34.20
2018-10-21T03:25:37.384Z,33.70
2018-10-21T03:28:11.617Z,32.37
2018-10-21T03:30:45.972Z,34.07
2018-10-21T03:33:20.428Z,33.63
2018-10-21T03:35:54.577Z,33.30
2018-10-21T03:38:29.054Z,36.53
2018-10-21T03:41:03.292Z,35.37
2018-10-21T03:43:37.599Z,35.30
2018-10-21T03:46:13.238Z,35.10
2018-10-21T03:48:47.571Z,39.63
2018-10-21T03:51:23.040Z,39.57
2018-10-21T03:53:58.161Z,38.23
2018-10-21T03:56:32.401Z,37.47
2018-10-21T03:59:07.364Z,37.50
2018-10-21T04:01:41.673Z,35.70
2018-10-21T04:04:16.250Z,37.40
2018-10-21T04:06:53.128Z,37.47
2018-10-21T04:09:27.560Z,34.70
2018-10-21T04:12:01.873Z,33.77
2018-10-21T04:14:36.176Z,39.60
2018-10-21T04:17:11.368Z,36.47
2018-10-21T04:19:45.635Z,40.63
2018-10-21T04:22:20.005Z,38.93
2018-10-21T04:24:54.324Z,37.83
2018-10-21T04:27:28.680Z,37.20
2018-10-21T04:30:03.696Z,40.03
2018-10-21T04:32:42.293Z,38.73
2018-10-21T04:35:18.636Z,39.60
2018-10-21T04:38:34.341Z,37.85
2018-10-21T04:41:08.517Z,40.28
2018-10-21T04:43:43.296Z,38.83
2018-10-21T04:46:18.348Z,40.03
2018-10-21T04:48:52.589Z,43.10
2018-10-21T04:51:26.857Z,39.75
2018-10-21T04:54:01.589Z,39.23
2018-10-21T04:56:35.748Z,40.63
2018-10-21T04:59:10.068Z,40.73
2018-10-21T05:01:45.177Z,42.37
2018-10-21T05:04:19.368Z,38.20
2018-10-21T05:06:54.055Z,41.90
2018-10-21T05:09:28.336Z,40.60
2018-10-21T05:12:02.637Z,38.25
2018-10-21T05:14:36.969Z,39.67
2018-10-21T05:17:12.037Z,39.90
2018-10-21T05:19:46.835Z,39.77
2018-10-21T05:22:21.320Z,35.27
2018-10-21T05:24:55.805Z,37.10
2018-10-21T05:27:30.038Z,36.50
2018-10-21T05:30:05.012Z,38.97
2018-10-21T05:32:39.383Z,39.97
2018-10-21T05:35:14.595Z,38.67
2018-10-21T05:37:48.956Z,36.47
2018-10-21T05:40:23.491Z,38.73
2018-10-21T05:42:57.781Z,38.03
2018-10-21T05:45:32.156Z,37.77
2018-10-21T05:48:06.412Z,42.30
2018-10-21T05:53:21.432Z,38.27
2018-10-21T05:55:56.125Z,39.37
2018-10-21T05:58:30.650Z,43.20
2018-10-21T06:01:04.912Z,39.17
2018-10-21T06:03:39.282Z,38.93
2018-10-21T06:06:13.658Z,38.37
2018-10-21T06:08:47.853Z,40.10
2018-10-21T06:11:22.681Z,39.17
2018-10-21T06:13:57.074Z,40.50
2018-10-21T06:16:35.939Z,40.23
2018-10-21T06:19:12.897Z,39.47
2018-10-21T06:21:47.138Z,39.17
2018-10-21T06:24:21.860Z,38.53
2018-10-21T06:26:56.196Z,38.40
2018-10-21T06:29:30.406Z,39.20
2018-10-21T06:32:04.918Z,40.80
2018-10-21T06:34:39.312Z,37.90
2018-10-21T06:37:13.668Z,37.80
2018-10-21T06:39:49.001Z,38.80
2018-10-21T06:42:23.496Z,35.80
2018-10-21T06:44:58.348Z,36.30
2018-10-21T06:47:32.624Z,38.87
2018-10-21T06:50:09.279Z,36.20
2018-10-21T06:52:44.214Z,35.50
2018-10-21T06:55:18.648Z,38.00
2018-10-21T06:57:53.039Z,36.28
2018-10-21T07:00:28.133Z,39.80
2018-10-21T07:03:02.748Z,33.70
2018-10-21T07:06:16.763Z,34.43
2018-10-21T07:08:52.338Z,35.53
2018-10-21T07:11:27.665Z,35.53
2018-10-21T07:14:02.137Z,33.67
2018-10-21T07:16:36.516Z,33.07
2018-10-21T07:19:10.589Z,31.07
2018-10-21T07:21:44.997Z,31.33
2018-10-21T07:24:19.284Z,29.93
2018-10-21T07:26:54.621Z,32.00
2018-10-21T07:29:30.064Z,33.33
2018-10-21T07:32:04.657Z,32.30
2018-10-21T07:34:38.950Z,30.87
2018-10-21T07:37:13.363Z,32.73
2018-10-21T07:39:47.684Z,31.03
2018-10-21T07:42:22.210Z,30.20
2018-10-21T07:44:57.878Z,31.07
2018-10-21T07:47:32.374Z,32.27
2018-10-21T07:50:06.857Z,31.70
2018-10-21T07:52:41.243Z,31.43
2018-10-21T07:55:17.568Z,33.43
2018-10-21T07:57:51.701Z,33.70
2018-10-21T08:00:26.237Z,32.63
2018-10-21T08:03:00.528Z,32.90
2018-10-21T08:05:46.164Z,34.03
2018-10-21T08:08:22.566Z,31.50
2018-10-21T08:10:56.965Z,34.50
2018-10-21T08:13:31.221Z,32.03
2018-10-21T08:16:05.715Z,35.47
2018-10-21T08:18:40.609Z,33.43
2018-10-21T08:21:15.071Z,33.40
2018-10-21T08:23:54.745Z,33.80
2018-10-21T08:26:29.060Z,33.50
2018-10-21T08:29:04.505Z,36.07
2018-10-21T08:31:39.246Z,31.67
2018-10-21T08:34:13.811Z,32.13
2018-10-21T08:36:51.444Z,35.07
2018-10-21T08:39:25.756Z,32.93
2018-10-21T08:42:00.186Z,31.70
2018-10-21T08:44:34.400Z,32.40
2018-10-21T08:47:08.921Z,33.23
2018-10-21T08:49:43.703Z,33.93
2018-10-21T08:52:18.220Z,38.10
2018-10-21T08:54:52.801Z,34.87
2018-10-21T08:57:27.301Z,34.17
2018-10-21T09:00:01.563Z,36.10
2018-10-21T09:02:36.172Z,36.97
2018-10-21T09:05:12.091Z,35.07
2018-10-21T09:07:46.701Z,34.17
2018-10-21T09:10:21.295Z,34.77
2018-10-21T09:12:55.518Z,35.90
2018-10-21T09:15:29.863Z,34.17
2018-10-21T09:18:04.645Z,34.47
2018-10-21T09:20:39.047Z,32.83
2018-10-21T09:23:15.196Z,32.47
2018-10-21T09:25:50.099Z,32.90
2018-10-21T09:28:24.460Z,33.90
2018-10-21T09:30:59.127Z,34.07
2018-10-21T09:33:33.377Z,30.60
2018-10-21T09:36:07.766Z,30.10
2018-10-21T09:38:42.861Z,32.30
2018-10-21T09:41:17.249Z,30.40
2018-10-21T09:43:51.614Z,28.33
2018-10-21T09:46:25.812Z,27.50
2018-10-21T09:49:00.219Z,30.87
2018-10-21T09:51:35.060Z,29.33
2018-10-21T09:54:09.934Z,31.10
2018-10-21T09:56:44.404Z,28.20
2018-10-21T09:59:18.741Z,31.37
2018-10-21T10:01:58.679Z,32.90
2018-10-21T10:04:33.165Z,31.03
2018-10-21T10:07:07.932Z,31.00
2018-10-21T10:09:42.093Z,29.20
2018-10-21T10:12:17.180Z,27.63
2018-10-21T10:14:51.731Z,29.67
2018-10-21T10:17:26.162Z,28.90
2018-10-21T10:20:00.574Z,28.77
2018-10-21T10:22:35.017Z,27.00
2018-10-21T10:25:10.413Z,29.00
2018-10-21T10:27:45.676Z,27.67
2018-10-21T10:30:21.190Z,28.70
2018-10-21T10:33:01.089Z,26.70
2018-10-21T10:35:35.621Z,27.80
2018-10-21T10:38:09.997Z,23.23
2018-10-21T10:40:44.641Z,23.10
2018-10-21T10:43:20.504Z,23.87
2018-10-21T10:45:54.923Z,22.97
2018-10-21T10:48:29.694Z,24.17
2018-10-21T10:51:04.380Z,24.10
2018-10-21T10:53:38.903Z,21.70
2018-10-21T10:56:13.389Z,23.00
2018-10-21T10:58:48.114Z,23.37
2018-10-21T11:01:22.616Z,21.57
2018-10-21T11:03:57.130Z,22.47
2018-10-21T11:06:31.455Z,22.23
2018-10-21T11:09:08.100Z,22.27
2018-10-21T11:11:42.344Z,22.30
2018-10-21T11:14:20.659Z,22.40
2018-10-21T11:16:55.089Z,24.10
2018-10-21T11:19:29.469Z,22.40
2018-10-21T11:22:03.848Z,21.30
2018-10-21T11:24:49.087Z,20.43
2018-10-21T11:27:24.788Z,17.33
2018-10-21T11:29:59.280Z,16.57
2018-10-21T11:32:34.320Z,17.80
2018-10-21T11:35:08.574Z,20.23
2018-10-21T11:37:42.946Z,20.87
2018-10-21T11:40:17.337Z,19.23
2018-10-21T11:42:52.153Z,19.20
2018-10-21T11:45:27.539Z,16.87
2018-10-21T11:48:02.003Z,16.43
2018-10-21T11:50:36.450Z,15.10
2018-10-21T11:53:11.889Z,13.10
2018-10-21T11:55:46.177Z,12.50
2018-10-21T11:58:20.737Z,15.40
2018-10-21T12:00:56.550Z,15.20
2018-10-21T12:03:30.876Z,16.63
2018-10-21T12:06:06.124Z,15.30
2018-10-21T12:08:40.471Z,14.50
2018-10-21T12:11:15.178Z,14.40
2018-10-21T12:13:51.384Z,12.37
2018-10-21T12:16:27.883Z,13.40
2018-10-21T12:19:02.358Z,12.90
2018-10-21T12:21:36.970Z,12.50
2018-10-21T12:24:11.297Z,13.17
2018-10-21T12:26:45.633Z,10.20
2018-10-21T12:29:22.159Z,10.87
2018-10-21T12:31:57.676Z,11.53
2018-10-21T12:34:31.933Z,11.50
2018-10-21T12:37:06.220Z,14.00
2018-10-21T12:39:40.573Z,11.20
2018-10-21T12:42:16.526Z,11.60
2018-10-21T12:44:50.960Z,9.57
2018-10-21T12:47:25.262Z,9.93
2018-10-21T12:49:59.700Z,11.20
2018-10-21T12:52:34.199Z,11.17
2018-10-21T12:55:09.450Z,10.17
2018-10-21T12:57:46.108Z,11.60
2018-10-21T13:00:20.800Z,11.93
2018-10-21T13:02:56.708Z,12.33
2018-10-21T13:05:31.091Z,12.30
2018-10-21T13:08:05.548Z,13.33
2018-10-21T13:10:40.168Z,15.07
2018-10-21T13:13:15.178Z,13.00
2018-10-21T13:15:50.403Z,12.47
2018-10-21T13:18:24.937Z,14.70
2018-10-21T13:21:01.554Z,15.80
2018-10-21T13:23:37.238Z,13.13
2018-10-21T13:26:11.478Z,13.57
2018-10-21T13:31:26.742Z,13.07
2018-10-21T13:34:09.083Z,11.97
2018-10-21T13:36:43.533Z,10.70
2018-10-21T13:39:18.040Z,12.10
2018-10-21T13:41:55.075Z,10.23
2018-10-21T13:44:31.099Z,10.70
2018-10-21T13:47:06.022Z,10.00
2018-10-21T13:49:41.003Z,11.17
2018-10-21T13:52:15.416Z,10.47
2018-10-21T13:54:49.524Z,10.13
2018-10-21T13:57:25.218Z,9.30
2018-10-21T13:59:59.759Z,9.07
2018-10-21T14:02:34.284Z,9.00
2018-10-21T14:05:09.035Z,8.50
2018-10-21T14:07:43.393Z,9.10
2018-10-21T14:10:18.009Z,9.93
2018-10-21T14:12:52.777Z,9.83
2018-10-21T14:15:27.713Z,9.53
2018-10-21T14:18:02.489Z,10.00
2018-10-21T14:20:38.336Z,9.93
2018-10-21T14:23:12.922Z,10.30
2018-10-21T14:25:49.606Z,10.00
2018-10-21T14:28:25.966Z,9.73
2018-10-21T14:31:00.438Z,10.70
2018-10-21T14:33:36.109Z,10.60
2018-10-21T14:36:11.369Z,10.40
2018-10-21T14:38:46.846Z,10.70
2018-10-21T14:41:21.845Z,11.07
2018-10-21T14:43:58.017Z,10.37
2018-10-21T14:46:36.567Z,8.50
2018-10-21T14:49:11.026Z,10.03
2018-10-21T14:51:46.282Z,11.73
2018-10-21T14:54:22.740Z,11.40
2018-10-21T14:57:00.301Z,9.70
2018-10-21T14:59:42.426Z,11.50
2018-10-21T15:03:24.365Z,9.60
2018-10-21T15:06:00.550Z,9.63
2018-10-21T15:08:35.142Z,9.43
2018-10-21T15:11:21.921Z,8.97
2018-10-21T15:13:58.949Z,8.70
2018-10-21T15:16:34.489Z,7.93
2018-10-21T15:19:09.306Z,8.93
2018-10-21T15:21:48.990Z,7.97
2018-10-21T15:24:24.429Z,9.80
2018-10-21T15:29:44.112Z,8.17
2018-10-21T15:32:22.141Z,8.83
2018-10-21T15:34:59.403Z,10.00
2018-10-21T15:37:38.478Z,10.17
2018-10-21T15:40:14.665Z,10.20
2018-10-21T15:42:49.571Z,10.70
2018-10-21T15:45:24.767Z,9.27
2018-10-21T15:47:59.453Z,10.83
2018-10-21T15:50:36.260Z,11.63
2018-10-21T15:53:11.758Z,11.33
2018-10-21T15:55:47.924Z,10.53
2018-10-21T15:58:22.864Z,11.17
2018-10-21T16:00:57.267Z,10.32
2018-10-21T16:03:31.597Z,10.40
2018-10-21T16:06:06.494Z,11.77
2018-10-21T16:08:40.815Z,10.07
2018-10-21T16:11:15.126Z,10.10
2018-10-21T16:13:49.452Z,10.10
2018-10-21T16:16:23.908Z,10.27
2018-10-21T16:18:58.332Z,10.37
2018-10-21T16:21:34.291Z,11.67
2018-10-21T16:24:08.651Z,10.87
2018-10-21T16:26:43.386Z,10.73
2018-10-21T16:29:17.591Z,12.40
2018-10-21T16:31:53.730Z,9.70
2018-10-21T16:34:28.959Z,12.27
2018-10-21T16:37:03.500Z,13.03
2018-10-21T16:39:39.558Z,12.87
2018-10-21T16:42:14.220Z,13.27
2018-10-21T16:44:48.908Z,14.97
2018-10-21T16:47:23.242Z,13.30
2018-10-21T16:50:00.023Z,14.50
2018-10-21T16:52:35.898Z,15.80
2018-10-21T16:55:12.098Z,15.50
2018-10-21T16:57:46.678Z,12.27
2018-10-21T17:00:21.343Z,12.70
2018-10-21T17:02:55.624Z,12.77
2018-10-21T17:05:30.150Z,12.10
2018-10-21T17:08:06.361Z,11.87
2018-10-21T17:10:40.821Z,12.70
2018-10-21T17:13:15.020Z,14.40
2018-10-21T17:15:49.382Z,13.33
2018-10-21T17:18:24.681Z,13.77
2018-10-21T17:20:59.833Z,14.13
2018-10-21T17:23:34.448Z,14.13
2018-10-21T17:26:08.775Z,13.73
2018-10-21T17:28:43.321Z,15.70
2018-10-21T17:31:17.655Z,12.20
2018-10-21T17:33:52.674Z,15.83
2018-10-21T17:36:27.220Z,13.30
2018-10-21T17:39:01.957Z,13.20
2018-10-21T17:41:36.601Z,14.33
2018-10-21T17:44:11.356Z,15.57
2018-10-21T17:46:45.845Z,15.37
2018-10-21T17:49:21.109Z,14.30
2018-10-21T17:51:55.579Z,13.43
2018-10-21T17:54:29.755Z,14.33
2018-10-21T17:57:04.075Z,13.83
2018-10-21T17:59:38.387Z,14.33
2018-10-21T18:02:12.708Z,16.17
2018-10-21T18:04:47.039Z,16.47
2018-10-21T18:07:21.422Z,15.80
2018-10-21T18:09:56.512Z,16.83
2018-10-21T18:12:30.932Z,16.63
2018-10-21T18:15:06.866Z,16.93
2018-10-21T18:17:42.395Z,18.10
2018-10-21T18:20:16.790Z,20.33
2018-10-21T18:22:51.033Z,18.73
2018-10-21T18:25:26.049Z,18.40
2018-10-21T18:28:00.732Z,17.70
2018-10-21T18:30:34.900Z,16.27
2018-10-21T18:33:10.153Z,22.03
2018-10-21T18:35:44.562Z,17.80
2018-10-21T18:38:20.201Z,18.00
2018-10-21T18:40:54.805Z,15.08
2018-10-21T18:43:29.456Z,16.87
2018-10-21T18:46:03.921Z,20.07
2018-10-21T18:48:38.713Z,22.13
2018-10-21T18:51:13.104Z,20.77
2018-10-21T18:53:47.645Z,32.00
2018-10-21T18:56:22.890Z,27.45
2018-10-21T18:58:57.379Z,26.63
2018-10-21T19:01:31.608Z,20.87
2018-10-21T19:04:06.044Z,17.87
2018-10-21T19:06:40.288Z,18.73
2018-10-21T19:09:14.572Z,20.23
2018-10-21T19:11:49.409Z,24.67
2018-10-21T19:14:23.730Z,20.50
2018-10-21T19:16:58.191Z,19.48
2018-10-21T19:19:32.485Z,19.85
2018-10-21T19:22:07.888Z,22.75
2018-10-21T19:24:42.372Z,20.82
2018-10-21T19:27:16.798Z,20.05
2018-10-21T19:29:51.002Z,22.48
2018-10-21T19:32:28.792Z,21.12
2018-10-21T19:35:03.184Z,21.00
2018-10-21T19:37:39.882Z,21.37
2018-10-21T19:40:15.418Z,21.85
2018-10-21T19:42:51.788Z,22.40
2018-10-21T19:45:26.320Z,21.07
2018-10-21T19:48:00.606Z,24.50
2018-10-21T19:50:35.553Z,22.35
2018-10-21T19:53:11.045Z,22.90
2018-10-21T19:55:46.167Z,27.17
2018-10-21T19:58:20.821Z,24.77
2018-10-21T20:00:56.826Z,26.55
2018-10-21T20:03:31.846Z,27.58
2018-10-21T20:06:07.745Z,25.50
2018-10-21T20:08:42.440Z,26.93
2018-10-21T20:11:17.073Z,25.08
2018-10-21T20:13:51.526Z,24.87
2018-10-21T20:16:26.144Z,22.70
2018-10-21T20:19:00.911Z,23.20
2018-10-21T20:21:35.320Z,26.70
2018-10-21T20:24:09.875Z,24.57
2018-10-21T20:26:45.795Z,27.48
2018-10-21T20:29:21.097Z,24.65
2018-10-21T20:31:55.765Z,24.92
2018-10-21T20:34:30.914Z,24.95
2018-10-21T20:37:06.213Z,26.80
2018-10-21T20:39:41.091Z,24.75
2018-10-21T20:42:15.648Z,25.32
2018-10-21T20:44:50.781Z,23.75
2018-10-21T20:47:25.156Z,25.55
2018-10-21T20:49:59.687Z,24.63
2018-10-21T20:52:34.155Z,23.22
2018-10-21T20:55:10.040Z,23.22
2018-10-21T20:57:44.788Z,23.65
2018-10-21T21:00:21.293Z,23.80
2018-10-21T21:02:57.337Z,24.77
2018-10-21T21:05:32.613Z,25.80
2018-10-21T21:08:17.946Z,25.23
2018-10-21T21:10:54.408Z,23.45
2018-10-21T21:13:33.565Z,22.85
2018-10-21T21:16:08.860Z,23.83
2018-10-21T21:18:43.367Z,23.02
2018-10-21T21:21:17.948Z,22.75
2018-10-21T21:23:52.447Z,23.52
2018-10-21T21:26:26.854Z,24.15
2018-10-21T21:29:02.380Z,27.22
2018-10-21T21:31:37.273Z,24.25
2018-10-21T21:34:14.263Z,23.10
2018-10-21T21:36:49.772Z,24.63
2018-10-21T21:39:25.472Z,25.77
2018-10-21T21:42:00.133Z,24.43
2018-10-21T21:44:34.518Z,25.95
2018-10-21T21:47:17.528Z,27.35
2018-10-21T21:49:56.515Z,23.25
2018-10-21T21:52:31.029Z,22.90
2018-10-21T21:55:06.886Z,23.95
2018-10-21T21:57:41.454Z,22.17
2018-10-21T22:00:16.091Z,21.33
2018-10-21T22:02:50.701Z,22.90
2018-10-21T22:05:25.276Z,22.67
2018-10-21T22:07:59.482Z,21.07
2018-10-21T22:10:34.014Z,22.67
2018-10-21T22:13:08.388Z,22.13
2018-10-21T22:15:42.732Z,21.27
2018-10-21T22:18:17.097Z,22.30
2018-10-21T22:20:51.362Z,20.65
2018-10-21T22:23:25.796Z,20.97
2018-10-21T22:26:00.182Z,21.52
2018-10-21T22:28:34.605Z,20.92
2018-10-21T22:31:08.877Z,22.05
2018-10-21T22:33:43.181Z,21.10
2018-10-21T22:36:17.508Z,21.97
2018-10-21T22:38:51.825Z,20.90
2018-10-21T22:41:26.171Z,25.00
2018-10-21T22:44:00.581Z,19.98
2018-10-21T22:46:34.928Z,22.48
2018-10-21T22:49:09.206Z,20.82
2018-10-21T22:51:44.559Z,21.25
2018-10-21T22:54:18.907Z,24.35
2018-10-21T22:56:53.235Z,19.90
2018-10-21T22:59:27.545Z,20.90
2018-10-21T23:02:01.747Z,21.62
2018-10-21T23:04:36.116Z,20.27
2018-10-21T23:07:10.333Z,19.65
2018-10-21T23:09:44.646Z,21.25
2018-10-21T23:12:19.081Z,21.30
2018-10-21T23:14:53.297Z,21.45
2018-10-21T23:17:27.725Z,21.42
2018-10-21T23:20:02.117Z,22.93
2018-10-21T23:22:36.344Z,20.82
2018-10-21T23:25:10.587Z,22.07
2018-10-21T23:27:44.908Z,21.62
2018-10-21T23:30:19.382Z,22.07
2018-10-21T23:32:53.608Z,22.07
2018-10-21T23:35:27.896Z,20.95
2018-10-21T23:38:02.222Z,22.42
2018-10-21T23:40:36.562Z,22.52
2018-10-21T23:43:10.976Z,21.07
2018-10-21T23:45:45.332Z,21.20
2018-10-21T23:48:19.800Z,20.02
2018-10-21T23:50:54.406Z,18.65
2018-10-21T23:53:28.813Z,19.00
2018-10-21T23:56:03.224Z,18.15
2018-10-21T23:58:37.542Z,18.17
